Time;durP1;ratioP1;P1;durP2;ratioP2;P2;SDS_P1;SDS_P2;PMS_P1;PMS_P2;Temp;Humidity;BMP_temperature;BMP_pressure;BME280_temperature;BME280_humidity;BME280_pressure;Samples;Min_cycle;Max_cycle;Signal;HPM_P1;HPM_P2
2023/10/28 11:24:39;;;;;;;2.77;0.90;;;;;;;;;;4823199;29;20212;-86
2023/10/28 11:29:02;;;;;;;2.00;0.80;;;;;;;;;;4830724;29;20188;-86
2023/10/28 11:32:10;;;;;;;2.33;0.90;;;;;;;;;;4827314;29;20200;-86
2023/10/28 11:35:15;;;;;;;2.03;0.67;;;;;;;;;;4848341;29;20205;-86
2023/10/28 11:38:19;;;;;;;1.23;0.63;;;;;;;;;;4902175;29;20197;-86
2023/10/28 11:41:24;;;;;;;4.17;0.77;;;;;;;;;;4889500;29;20185;-86
2023/10/28 11:44:29;;;;;;;1.60;0.70;;;;;;;;;;4900332;29;20190;-86
2023/10/28 11:47:33;;;;;;;5.53;2.63;;;;;;;;;;4900920;29;20198;-87
2023/10/28 11:50:39;;;;;;;12.67;4.73;;;;;;;;;;4900448;29;20182;-87
2023/10/28 11:53:44;;;;;;;26.30;13.97;;;;;;;;;;4888733;29;20284;-87
2023/10/28 11:56:48;;;;;;;3.33;1.20;;;;;;;;;;4879645;29;20555;-87
2023/10/28 11:59:53;;;;;;;1.83;1.30;;;;;;;;;;4900029;29;20221;-87
2023/10/28 12:03:48;;;;;;;2.53;1.00;;;;;;;;;;4899754;29;20532;-86
2023/10/28 12:16:47;;;;;;;5.33;3.30;;;;;;;;;;4879601;29;20213;-86
2023/10/28 12:41:15;;;;;;;2.57;1.10;;;;;;;;;;4859987;29;20242;-85
2023/10/28 12:46:11;;;;;;;2.77;1.20;;;;;;;;;;4811905;29;20209;-85
2023/10/28 12:50:45;;;;;;;22.33;13.27;;;;;;;;;;4826833;29;20227;-86
2023/10/28 12:55:02;;;;;;;28.63;17.17;;;;;;;;;;4823481;29;20219;-85
2023/10/28 12:58:21;;;;;;;9.90;4.13;;;;;;;;;;4825169;29;20222;-85
2023/10/28 13:02:49;;;;;;;18.50;11.57;;;;;;;;;;4841121;29;20207;-86
2023/10/28 13:21:45;;;;;;;2.40;1.40;;;;;;;;;;4898572;29;20178;-85
2023/10/28 13:31:42;;;;;;;3.00;1.00;;;;;;;;;;4901860;29;20632;-85
2023/10/28 13:34:49;;;;;;;4.00;0.93;;;;;;;;;;4901160;29;20193;-85
2023/10/28 13:37:54;;;;;;;2.03;0.77;;;;;;;;;;4890034;29;20198;-85
2023/10/28 13:41:00;;;;;;;3.23;1.00;;;;;;;;;;4879464;29;20190;-85
2023/10/28 13:44:05;;;;;;;3.50;1.10;;;;;;;;;;4900501;29;20220;-86
2023/10/28 13:47:10;;;;;;;2.70;1.03;;;;;;;;;;4890109;29;20190;-85
2023/10/28 13:50:15;;;;;;;3.90;1.10;;;;;;;;;;4890009;29;20233;-86
2023/10/28 13:53:20;;;;;;;3.10;1.00;;;;;;;;;;4901210;29;20190;-86
2023/10/28 13:56:24;;;;;;;4.60;1.40;;;;;;;;;;4890721;29;20193;-85
2023/10/28 13:59:28;;;;;;;3.10;1.10;;;;;;;;;;4900465;29;20221;-85
2023/10/28 14:02:32;;;;;;;5.70;1.30;;;;;;;;;;4890620;29;20193;-86
2023/10/28 14:05:37;;;;;;;4.97;1.00;;;;;;;;;;4889539;29;20651;-86
2023/10/28 14:08:41;;;;;;;5.17;1.30;;;;;;;;;;4900076;29;20225;-85
2023/10/28 14:11:46;;;;;;;6.13;1.10;;;;;;;;;;4900719;29;20221;-85
2023/10/28 14:14:50;;;;;;;35.90;20.90;;;;;;;;;;4900456;29;20185;-85
2023/10/28 14:17:55;;;;;;;48.33;27.53;;;;;;;;;;4889784;29;20196;-85
2023/10/28 14:20:59;;;;;;;19.53;7.73;;;;;;;;;;4900150;29;20197;-85
2023/10/28 14:24:04;;;;;;;7.60;4.13;;;;;;;;;;4900931;29;20190;-85
2023/10/28 14:27:08;;;;;;;3.93;1.30;;;;;;;;;;4889510;29;20194;-85
2023/10/28 14:30:13;;;;;;;3.70;1.30;;;;;;;;;;4889180;29;20233;-86
2023/10/28 14:33:18;;;;;;;4.07;1.20;;;;;;;;;;4878229;29;20193;-85
2023/10/28 14:36:22;;;;;;;6.97;1.43;;;;;;;;;;4889481;29;20194;-85
2023/10/28 14:39:26;;;;;;;4.97;1.40;;;;;;;;;;4878712;29;20221;-85
2023/10/28 14:42:31;;;;;;;6.43;1.50;;;;;;;;;;4878632;29;20217;-85
2023/10/28 14:45:35;;;;;;;9.00;1.10;;;;;;;;;;4900395;29;20186;-86
2023/10/28 14:48:45;;;;;;;4.73;1.20;;;;;;;;;;4890574;29;20698;-85
2023/10/28 14:51:53;;;;;;;3.63;1.00;;;;;;;;;;4889203;29;20182;-86
2023/10/28 14:54:57;;;;;;;6.00;1.47;;;;;;;;;;4889005;29;20197;-86
2023/10/28 14:58:01;;;;;;;5.77;1.17;;;;;;;;;;4888671;29;20193;-86
2023/10/28 15:01:06;;;;;;;4.03;1.07;;;;;;;;;;4899272;29;20190;-86
2023/10/28 15:04:10;;;;;;;3.27;1.13;;;;;;;;;;4888641;29;20190;-86
2023/10/28 15:07:20;;;;;;;8.20;1.50;;;;;;;;;;4899543;29;20189;-86
2023/10/28 15:10:25;;;;;;;6.70;2.20;;;;;;;;;;4877921;29;20229;-86
2023/10/28 15:13:28;;;;;;;5.47;2.47;;;;;;;;;;4867600;29;20643;-85
2023/10/28 15:16:36;;;;;;;8.70;1.60;;;;;;;;;;4888529;29;20205;-85
2023/10/28 15:19:42;;;;;;;2.97;1.57;;;;;;;;;;4888551;29;20225;-86
2023/10/28 15:22:46;;;;;;;11.37;1.30;;;;;;;;;;4899061;29;20193;-86
2023/10/28 15:25:50;;;;;;;8.63;1.40;;;;;;;;;;4888093;29;20189;-85
2023/10/28 15:28:54;;;;;;;3.63;1.20;;;;;;;;;;4899495;29;20225;-85
2023/10/28 15:31:59;;;;;;;3.77;1.30;;;;;;;;;;4887910;29;20178;-85
2023/10/28 15:35:03;;;;;;;5.97;1.13;;;;;;;;;;4898480;29;20640;-85
2023/10/28 15:38:07;;;;;;;4.20;1.00;;;;;;;;;;4888042;29;20541;-85
2023/10/28 15:41:11;;;;;;;4.30;1.07;;;;;;;;;;4898650;29;20185;-85
2023/10/28 15:44:18;;;;;;;7.17;1.10;;;;;;;;;;4877443;29;20194;-85
2023/10/28 15:47:23;;;;;;;8.33;1.50;;;;;;;;;;4887716;29;20529;-85
2023/10/28 15:50:34;;;;;;;2.03;1.10;;;;;;;;;;4888275;29;20233;-86
2023/10/28 15:53:41;;;;;;;4.67;1.47;;;;;;;;;;4878160;29;20197;-86
2023/10/28 15:56:45;;;;;;;3.40;1.30;;;;;;;;;;4898478;29;20643;-86
2023/10/28 15:59:49;;;;;;;6.30;1.30;;;;;;;;;;4898915;29;20221;-86
2023/10/28 16:02:53;;;;;;;2.07;1.00;;;;;;;;;;4898432;29;20189;-86
2023/10/28 16:05:58;;;;;;;5.83;1.40;;;;;;;;;;4913959;28;20177;-85
2023/10/28 16:09:03;;;;;;;5.87;1.10;;;;;;;;;;4909011;29;20229;-85
2023/10/28 16:12:07;;;;;;;2.03;0.90;;;;;;;;;;4891755;29;20173;-85
2023/10/28 16:15:14;;;;;;;3.00;1.07;;;;;;;;;;4904411;29;20197;-85
2023/10/28 16:18:18;;;;;;;3.23;1.10;;;;;;;;;;4904384;29;20189;-84
2023/10/28 16:21:23;;;;;;;2.20;0.77;;;;;;;;;;4904722;29;20181;-85
2023/10/28 16:24:27;;;;;;;4.50;1.03;;;;;;;;;;4892043;29;20189;-85
2023/10/28 16:27:35;;;;;;;2.33;0.87;;;;;;;;;;4881338;29;20189;-85
2023/10/28 16:30:41;;;;;;;3.93;1.20;;;;;;;;;;4902980;29;20222;-86
2023/10/28 16:37:53;;;;;;;2.73;1.20;;;;;;;;;;4877960;29;20197;-86
2023/10/28 16:40:59;;;;;;;2.63;1.17;;;;;;;;;;4896302;29;20186;-85
2023/10/28 16:44:37;;;;;;;2.30;1.07;;;;;;;;;;4907433;29;20197;-86
2023/10/28 16:48:08;;;;;;;3.87;0.97;;;;;;;;;;4913060;29;20219;-85
2023/10/28 16:51:20;;;;;;;2.03;0.73;;;;;;;;;;4896203;29;20663;-85
2023/10/28 16:54:46;;;;;;;3.87;1.37;;;;;;;;;;4889021;29;20216;-85
2023/10/28 16:57:54;;;;;;;4.87;1.70;;;;;;;;;;4907968;29;20193;-85
2023/10/28 17:01:02;;;;;;;6.37;2.00;;;;;;;;;;4888082;29;20182;-86
2023/10/28 17:04:44;;;;;;;3.17;1.33;;;;;;;;;;4888301;29;20185;-85
2023/10/28 17:07:50;;;;;;;3.03;1.27;;;;;;;;;;4910522;29;20640;-85
2023/10/28 17:10:59;;;;;;;2.63;1.17;;;;;;;;;;4888026;29;20218;-85
2023/10/28 17:14:05;;;;;;;3.87;1.20;;;;;;;;;;4914948;29;20198;-85
2023/10/28 17:17:11;;;;;;;1.50;1.00;;;;;;;;;;4876816;29;20193;-85
2023/10/28 17:20:16;;;;;;;4.67;1.10;;;;;;;;;;4897426;29;20225;-84
2023/10/28 17:23:20;;;;;;;3.13;1.00;;;;;;;;;;4875982;29;20194;-85
2023/10/28 17:26:25;;;;;;;2.60;1.13;;;;;;;;;;4876042;29;20193;-84
2023/10/28 17:29:34;;;;;;;3.57;1.00;;;;;;;;;;4907937;29;20225;-84
2023/10/28 17:32:41;;;;;;;3.13;1.23;;;;;;;;;;4897593;29;20186;-84
2023/10/28 17:35:47;;;;;;;2.60;1.03;;;;;;;;;;4897140;29;20193;-85
2023/10/28 17:39:46;;;;;;;2.07;1.00;;;;;;;;;;4875891;29;20579;-84
2023/10/28 17:42:51;;;;;;;4.70;1.67;;;;;;;;;;4886616;29;20213;-85
2023/10/28 17:45:58;;;;;;;3.43;1.20;;;;;;;;;;4896701;29;20185;-85
2023/10/28 17:53:52;;;;;;;3.83;1.30;;;;;;;;;;4876048;29;20206;-85
2023/10/28 17:57:16;;;;;;;4.67;1.30;;;;;;;;;;4887166;29;20187;-85
2023/10/28 18:00:23;;;;;;;7.37;1.20;;;;;;;;;;4864007;29;20230;-85
2023/10/28 18:03:49;;;;;;;6.73;1.73;;;;;;;;;;4885574;29;20205;-85
2023/10/28 18:07:54;;;;;;;4.07;2.20;;;;;;;;;;4907981;29;20185;-85
2023/10/28 18:11:08;;;;;;;8.33;2.87;;;;;;;;;;4894746;29;20687;-85
2023/10/28 18:14:16;;;;;;;5.83;2.30;;;;;;;;;;4894571;29;20194;-85
2023/10/28 18:17:57;;;;;;;5.57;2.27;;;;;;;;;;4904860;29;20198;-85
2023/10/28 18:21:04;;;;;;;6.03;1.77;;;;;;;;;;4884343;29;20190;-84
2023/10/28 18:24:13;;;;;;;6.13;1.90;;;;;;;;;;4894558;29;20194;-85
2023/10/28 18:27:17;;;;;;;4.03;1.67;;;;;;;;;;4905526;29;20628;-85
2023/10/28 18:30:21;;;;;;;4.47;1.53;;;;;;;;;;4904300;29;20233;-85
2023/10/28 18:33:28;;;;;;;7.83;1.93;;;;;;;;;;4904059;29;20198;-85
2023/10/28 18:36:32;;;;;;;3.53;1.60;;;;;;;;;;4892929;29;20193;-84
2023/10/28 18:39:37;;;;;;;2.90;1.40;;;;;;;;;;4893104;29;20221;-85
2023/10/28 18:42:41;;;;;;;4.50;1.50;;;;;;;;;;4902956;29;20213;-85
2023/10/28 18:45:46;;;;;;;6.77;1.97;;;;;;;;;;4893130;29;20197;-85
2023/10/28 18:48:50;;;;;;;5.83;1.40;;;;;;;;;;4891662;29;20565;-85
2023/10/28 18:51:55;;;;;;;5.20;1.40;;;;;;;;;;4902631;29;20564;-85
2023/10/28 18:54:59;;;;;;;4.57;1.10;;;;;;;;;;4903855;29;20193;-85
2023/10/28 18:58:04;;;;;;;3.63;1.33;;;;;;;;;;4892883;29;20194;-85
2023/10/28 19:01:14;;;;;;;5.20;1.60;;;;;;;;;;4902520;29;20185;-85
2023/10/28 19:04:18;;;;;;;5.23;1.27;;;;;;;;;;4881621;29;20186;-85
2023/10/28 19:07:23;;;;;;;6.13;1.77;;;;;;;;;;4903407;29;20193;-85
2023/10/28 19:10:27;;;;;;;3.97;1.50;;;;;;;;;;4902074;29;20237;-85
2023/10/28 19:13:32;;;;;;;6.40;1.40;;;;;;;;;;4902657;29;20194;-85
2023/10/28 19:16:39;;;;;;;3.37;1.20;;;;;;;;;;4890662;29;20648;-84
2023/10/28 19:19:44;;;;;;;5.03;1.10;;;;;;;;;;4890598;29;20699;-85
2023/10/28 19:22:50;;;;;;;2.43;0.97;;;;;;;;;;4901011;29;20531;-85
2023/10/28 19:25:54;;;;;;;3.70;1.20;;;;;;;;;;4901617;29;20635;-85
2023/10/28 19:28:58;;;;;;;3.80;1.20;;;;;;;;;;4901883;29;20221;-84
2023/10/28 19:32:03;;;;;;;3.57;1.10;;;;;;;;;;4902076;29;20221;-85
2023/10/28 19:35:09;;;;;;;4.80;1.07;;;;;;;;;;4901460;29;20647;-84
2023/10/28 19:38:13;;;;;;;2.23;1.00;;;;;;;;;;4900609;29;20193;-83
2023/10/28 19:41:18;;;;;;;2.13;0.97;;;;;;;;;;4902005;29;20186;-85
2023/10/28 19:44:23;;;;;;;2.27;1.07;;;;;;;;;;4891259;29;20194;-85
2023/10/28 19:47:28;;;;;;;2.10;1.00;;;;;;;;;;4900777;29;20189;-85
2023/10/28 19:50:32;;;;;;;5.10;1.33;;;;;;;;;;4902926;29;20229;-85
2023/10/28 19:53:39;;;;;;;5.57;1.20;;;;;;;;;;4891195;29;20193;-85
2023/10/28 19:56:43;;;;;;;4.97;1.23;;;;;;;;;;4901367;29;20193;-85
2023/10/28 19:59:49;;;;;;;5.90;1.30;;;;;;;;;;4891193;29;20229;-85
2023/10/28 20:02:55;;;;;;;3.87;1.43;;;;;;;;;;4901899;29;20189;-85
2023/10/28 20:06:00;;;;;;;2.63;1.27;;;;;;;;;;4871500;29;20190;-85
2023/10/28 20:09:06;;;;;;;4.10;1.60;;;;;;;;;;4890440;29;20568;-84
2023/10/28 20:12:11;;;;;;;2.77;1.20;;;;;;;;;;4890533;29;20560;-85
2023/10/28 20:15:16;;;;;;;6.27;1.70;;;;;;;;;;4901044;29;20185;-85
2023/10/28 20:18:20;;;;;;;5.13;1.30;;;;;;;;;;4902482;29;20189;-87
2023/10/28 20:21:25;;;;;;;3.50;1.20;;;;;;;;;;4890308;29;20190;-86
2023/10/28 20:24:29;;;;;;;7.00;1.80;;;;;;;;;;4890312;29;20640;-86
2023/10/28 20:27:34;;;;;;;4.50;1.57;;;;;;;;;;4889762;29;20189;-86
2023/10/28 20:30:38;;;;;;;5.20;1.40;;;;;;;;;;4902107;29;20229;-87
2023/10/28 20:33:42;;;;;;;4.80;1.67;;;;;;;;;;4905661;29;20521;-87
2023/10/28 20:36:47;;;;;;;5.33;1.57;;;;;;;;;;4905888;29;20193;-86
2023/10/28 20:39:53;;;;;;;4.67;1.40;;;;;;;;;;4894136;29;20225;-87
2023/10/28 20:42:58;;;;;;;4.90;1.70;;;;;;;;;;4895127;29;20209;-86
2023/10/28 20:46:04;;;;;;;4.53;1.37;;;;;;;;;;4905738;29;20194;-87
2023/10/28 20:49:08;;;;;;;3.50;1.37;;;;;;;;;;4883740;29;20229;-87
2023/10/28 20:52:13;;;;;;;2.27;1.40;;;;;;;;;;4905362;29;20217;-87
2023/10/28 20:55:19;;;;;;;3.03;1.57;;;;;;;;;;4893720;29;20189;-87
2023/10/28 20:58:24;;;;;;;3.83;1.27;;;;;;;;;;4906026;29;20190;-87
2023/10/28 21:01:30;;;;;;;4.30;1.40;;;;;;;;;;4883726;29;20182;-87
2023/10/28 21:04:34;;;;;;;5.40;1.63;;;;;;;;;;4893845;29;20541;-87
2023/10/28 21:07:39;;;;;;;3.10;1.33;;;;;;;;;;4882787;29;20628;-87
2023/10/28 21:10:43;;;;;;;5.20;1.50;;;;;;;;;;4893515;29;20639;-87
2023/10/28 21:13:47;;;;;;;4.83;1.47;;;;;;;;;;4904959;29;20189;-85
2023/10/28 21:16:51;;;;;;;2.63;1.20;;;;;;;;;;4903919;29;20190;-84
2023/10/28 21:19:57;;;;;;;6.73;1.43;;;;;;;;;;4892621;29;20567;-84
2023/10/28 21:23:01;;;;;;;4.67;1.43;;;;;;;;;;4893775;29;20536;-85
2023/10/28 21:26:07;;;;;;;6.77;1.63;;;;;;;;;;4872145;29;20190;-85
2023/10/28 21:29:12;;;;;;;2.53;1.20;;;;;;;;;;4882400;29;20225;-84
2023/10/28 21:32:18;;;;;;;4.20;1.80;;;;;;;;;;4893366;29;20560;-85
2023/10/28 21:35:22;;;;;;;5.73;1.47;;;;;;;;;;4893198;29;20185;-85
2023/10/28 21:38:27;;;;;;;3.83;1.47;;;;;;;;;;4893865;29;20186;-85
2023/10/28 21:41:31;;;;;;;4.03;1.40;;;;;;;;;;4904604;29;20190;-84
2023/10/28 21:44:35;;;;;;;3.00;1.53;;;;;;;;;;4893216;29;20648;-85
2023/10/28 21:47:39;;;;;;;2.90;1.30;;;;;;;;;;4904197;29;20189;-85
2023/10/28 21:50:48;;;;;;;3.07;1.47;;;;;;;;;;4904003;29;20193;-85
2023/10/28 21:53:52;;;;;;;4.13;1.57;;;;;;;;;;4893948;29;20182;-85
2023/10/28 21:56:57;;;;;;;2.37;1.33;;;;;;;;;;4904483;29;20194;-84
2023/10/28 22:00:01;;;;;;;3.33;1.43;;;;;;;;;;4882763;29;20229;-84
2023/10/28 22:03:09;;;;;;;5.10;1.60;;;;;;;;;;4893824;29;20537;-85
2023/10/28 22:06:13;;;;;;;5.77;1.60;;;;;;;;;;4882841;29;20194;-85
2023/10/28 22:09:18;;;;;;;4.87;1.50;;;;;;;;;;4881783;29;20225;-85
2023/10/28 22:12:22;;;;;;;3.80;1.90;;;;;;;;;;4892791;29;20683;-85
2023/10/28 22:15:26;;;;;;;2.33;1.43;;;;;;;;;;4881977;29;20190;-85
2023/10/28 22:18:31;;;;;;;4.37;1.60;;;;;;;;;;4871194;29;20648;-85
2023/10/28 22:21:36;;;;;;;3.43;1.57;;;;;;;;;;4881816;29;20190;-85
2023/10/28 22:24:41;;;;;;;3.47;1.50;;;;;;;;;;4892693;29;20185;-85
2023/10/28 22:27:45;;;;;;;4.77;1.50;;;;;;;;;;4903772;29;20189;-85
2023/10/28 22:30:50;;;;;;;3.37;1.50;;;;;;;;;;4892731;29;20190;-85
2023/10/28 22:33:54;;;;;;;4.13;1.27;;;;;;;;;;4871308;29;20186;-85
2023/10/28 22:36:58;;;;;;;4.73;1.60;;;;;;;;;;4882719;29;20194;-84
2023/10/28 22:40:05;;;;;;;3.03;1.57;;;;;;;;;;4893334;29;20229;-85
2023/10/28 22:43:09;;;;;;;4.70;1.70;;;;;;;;;;4904325;29;20205;-85
2023/10/28 22:46:14;;;;;;;3.80;1.40;;;;;;;;;;4883143;29;20185;-85
2023/10/28 22:49:18;;;;;;;4.10;1.40;;;;;;;;;;4882108;29;20236;-85
2023/10/28 22:52:22;;;;;;;5.17;1.67;;;;;;;;;;4903646;29;20217;-85
2023/10/28 22:55:26;;;;;;;5.90;1.50;;;;;;;;;;4892572;29;20185;-85
2023/10/28 22:58:30;;;;;;;3.60;1.47;;;;;;;;;;4902687;29;20193;-85
2023/10/28 23:01:35;;;;;;;2.77;1.37;;;;;;;;;;4903412;29;20197;-85
2023/10/28 23:04:39;;;;;;;3.27;1.40;;;;;;;;;;4891176;29;20190;-85
2023/10/28 23:07:44;;;;;;;3.97;1.37;;;;;;;;;;4901256;29;20544;-85
2023/10/28 23:10:48;;;;;;;3.70;1.30;;;;;;;;;;4901608;29;20193;-85
2023/10/28 23:13:52;;;;;;;3.50;1.23;;;;;;;;;;4885300;29;20190;-85
2023/10/28 23:16:56;;;;;;;3.57;1.23;;;;;;;;;;4901721;29;20186;-85
2023/10/28 23:20:01;;;;;;;2.60;1.40;;;;;;;;;;4901620;29;20233;-85
2023/10/28 23:23:06;;;;;;;4.97;1.53;;;;;;;;;;4890720;29;20181;-85
2023/10/28 23:26:10;;;;;;;2.07;1.17;;;;;;;;;;4858941;29;20193;-85
2023/10/28 23:29:14;;;;;;;3.33;1.80;;;;;;;;;;4890726;29;20225;-85
2023/10/28 23:32:18;;;;;;;2.87;1.20;;;;;;;;;;4880636;29;20217;-85
2023/10/28 23:35:24;;;;;;;3.23;1.40;;;;;;;;;;4879957;29;20186;-85
2023/10/28 23:38:28;;;;;;;2.33;1.23;;;;;;;;;;4902070;29;20189;-85
2023/10/28 23:41:32;;;;;;;3.80;1.40;;;;;;;;;;4891041;29;20190;-85
2023/10/28 23:44:42;;;;;;;3.17;1.50;;;;;;;;;;4880010;29;20182;-84
2023/10/28 23:47:48;;;;;;;3.93;1.40;;;;;;;;;;4890460;29;20185;-85
2023/10/28 23:50:52;;;;;;;6.17;1.47;;;;;;;;;;4890533;29;20202;-85
2023/10/28 23:53:57;;;;;;;5.33;1.10;;;;;;;;;;4880163;29;20222;-84
2023/10/28 23:57:01;;;;;;;5.07;1.13;;;;;;;;;;4891096;29;20186;-85
